createdAt,value
2022-11-08T00:01:34.705Z,2.30
2022-11-08T00:04:02.918Z,2.40
2022-11-08T00:06:47.612Z,2.17
2022-11-08T00:09:32.512Z,2.35
2022-11-08T00:12:18.521Z,2.40
2022-11-08T00:14:47.215Z,2.30
2022-11-08T00:17:15.368Z,2.47
2022-11-08T00:19:42.775Z,2.58
2022-11-08T00:22:10.155Z,2.47
2022-11-08T00:24:37.477Z,2.50
2022-11-08T00:27:06.936Z,2.15
2022-11-08T00:29:35.253Z,1.83
2022-11-08T00:32:02.854Z,2.30
2022-11-08T00:34:30.145Z,2.35
2022-11-08T00:36:57.443Z,1.92
2022-11-08T00:39:24.756Z,1.98
2022-11-08T00:41:52.329Z,2.67
2022-11-08T00:44:21.065Z,2.03
2022-11-08T00:46:48.398Z,2.03
2022-11-08T00:49:15.849Z,2.30
2022-11-08T00:51:43.133Z,2.10
2022-11-08T00:54:11.904Z,2.53
2022-11-08T00:56:39.226Z,2.33
2022-11-08T00:59:06.573Z,2.13
2022-11-08T01:01:35.317Z,2.08
2022-11-08T01:04:02.659Z,2.33
2022-11-08T01:06:29.991Z,2.72
2022-11-08T01:08:58.015Z,2.63
2022-11-08T01:11:26.122Z,2.83
2022-11-08T01:13:56.603Z,2.25
2022-11-08T01:16:25.095Z,2.13
2022-11-08T01:18:55.003Z,2.33
2022-11-08T01:21:22.926Z,2.72
2022-11-08T01:23:50.485Z,2.30
2022-11-08T01:26:19.203Z,1.88
2022-11-08T01:28:47.096Z,2.25
2022-11-08T01:31:15.680Z,2.05
2022-11-08T01:33:48.457Z,2.45
2022-11-08T01:36:20.567Z,2.20
2022-11-08T01:38:48.033Z,2.20
2022-11-08T01:41:16.125Z,2.63
2022-11-08T01:43:44.107Z,2.45
2022-11-08T01:46:23.990Z,2.38
2022-11-08T01:48:53.498Z,2.15
2022-11-08T01:51:24.314Z,2.25
2022-11-08T01:53:51.937Z,1.75
2022-11-08T01:56:20.243Z,2.50
2022-11-08T01:58:48.124Z,1.83
2022-11-08T02:01:15.599Z,2.90
2022-11-08T02:03:43.220Z,3.10
2022-11-08T02:06:11.084Z,3.50
2022-11-08T02:08:40.684Z,3.60
2022-11-08T02:11:08.655Z,3.33
2022-11-08T02:13:37.384Z,3.03
2022-11-08T02:16:07.522Z,2.95
2022-11-08T02:18:34.913Z,2.63
2022-11-08T02:21:07.199Z,3.47
2022-11-08T02:23:43.390Z,2.72
2022-11-08T02:26:10.744Z,2.80
2022-11-08T02:28:39.207Z,3.22
2022-11-08T02:31:08.476Z,2.40
2022-11-08T02:33:35.768Z,2.80
2022-11-08T02:36:03.785Z,2.45
2022-11-08T02:38:31.221Z,2.75
2022-11-08T02:40:59.926Z,2.85
2022-11-08T02:43:27.275Z,2.17
2022-11-08T02:45:54.580Z,2.63
2022-11-08T02:48:21.997Z,2.90
2022-11-08T02:50:49.373Z,2.38
2022-11-08T02:53:17.079Z,2.90
2022-11-08T02:55:44.461Z,2.60
2022-11-08T02:58:13.183Z,3.33
2022-11-08T03:00:40.587Z,2.95
2022-11-08T03:03:07.894Z,2.58
2022-11-08T03:05:35.330Z,2.95
2022-11-08T03:08:02.657Z,2.85
2022-11-08T03:10:31.082Z,3.15
2022-11-08T03:12:58.950Z,3.40
2022-11-08T03:15:27.967Z,3.08
2022-11-08T03:17:56.147Z,2.95
2022-11-08T03:20:24.599Z,3.13
2022-11-08T03:22:58.148Z,2.75
2022-11-08T03:25:25.456Z,3.15
2022-11-08T03:27:52.782Z,2.30
2022-11-08T03:30:20.136Z,2.65
2022-11-08T03:32:49.713Z,2.63
2022-11-08T03:35:17.073Z,3.35
2022-11-08T03:37:50.316Z,2.40
2022-11-08T03:40:17.609Z,2.20
2022-11-08T03:42:44.989Z,2.70
2022-11-08T03:45:12.582Z,2.72
2022-11-08T03:47:40.444Z,2.15
2022-11-08T03:50:09.896Z,2.33
2022-11-08T03:52:40.955Z,2.15
2022-11-08T03:55:08.961Z,2.30
2022-11-08T03:57:36.282Z,2.78
2022-11-08T04:00:03.930Z,2.95
2022-11-08T04:02:31.520Z,2.55
2022-11-08T04:04:58.896Z,2.53
2022-11-08T04:07:28.550Z,3.30
2022-11-08T04:09:55.867Z,2.80
2022-11-08T04:12:46.045Z,2.70
2022-11-08T04:15:17.564Z,2.67
2022-11-08T04:18:04.199Z,2.67
2022-11-08T04:20:48.974Z,2.63
2022-11-08T04:23:18.102Z,2.55
2022-11-08T04:25:45.680Z,3.08
2022-11-08T04:28:13.004Z,2.80
2022-11-08T04:30:42.363Z,2.70
2022-11-08T04:33:09.649Z,2.95
2022-11-08T04:35:36.992Z,3.08
2022-11-08T04:38:04.294Z,2.47
2022-11-08T04:40:32.954Z,3.25
2022-11-08T04:43:00.305Z,3.58
2022-11-08T04:45:27.624Z,3.85
2022-11-08T04:47:54.966Z,3.70
2022-11-08T04:50:22.360Z,3.42
2022-11-08T04:52:51.826Z,3.60
2022-11-08T04:55:19.181Z,3.60
2022-11-08T04:57:47.900Z,3.97
2022-11-08T05:00:15.908Z,4.32
2022-11-08T05:02:43.424Z,4.75
2022-11-08T05:05:10.969Z,5.05
2022-11-08T05:07:38.323Z,5.05
2022-11-08T05:10:06.065Z,5.55
2022-11-08T05:12:33.360Z,5.00
2022-11-08T05:15:02.094Z,5.60
2022-11-08T05:17:29.424Z,5.25
2022-11-08T05:20:14.290Z,6.30
2022-11-08T05:22:59.190Z,6.80
2022-11-08T05:25:26.740Z,7.00
2022-11-08T05:27:54.072Z,7.75
2022-11-08T05:30:22.802Z,8.00
2022-11-08T05:32:51.236Z,7.70
2022-11-08T05:35:21.365Z,6.63
2022-11-08T05:37:48.636Z,8.00
2022-11-08T05:40:15.935Z,8.05
2022-11-08T05:42:43.275Z,7.28
2022-11-08T05:45:10.965Z,7.82
2022-11-08T05:47:39.664Z,6.75
2022-11-08T05:50:07.408Z,7.15
2022-11-08T05:52:34.763Z,7.28
2022-11-08T05:55:02.165Z,6.43
2022-11-08T05:57:29.679Z,6.18
2022-11-08T05:59:56.986Z,5.20
2022-11-08T06:02:24.450Z,5.75
2022-11-08T06:04:53.322Z,6.50
2022-11-08T06:07:20.597Z,6.43
2022-11-08T06:09:47.924Z,7.05
2022-11-08T06:12:15.229Z,6.78
2022-11-08T06:14:42.556Z,6.38
2022-11-08T06:17:09.891Z,6.53
2022-11-08T06:19:37.192Z,5.60
2022-11-08T06:22:05.843Z,6.10
2022-11-08T06:24:33.159Z,5.65
2022-11-08T06:27:00.475Z,4.55
2022-11-08T06:29:28.090Z,4.55
2022-11-08T06:31:55.422Z,4.82
2022-11-08T06:34:22.816Z,4.22
2022-11-08T06:36:50.154Z,4.00
2022-11-08T06:39:18.860Z,3.78
2022-11-08T06:41:46.216Z,3.78
2022-11-08T06:44:13.493Z,3.45
2022-11-08T06:46:43.874Z,2.95
2022-11-08T06:49:11.164Z,3.45
2022-11-08T06:51:38.546Z,3.33
2022-11-08T06:54:08.712Z,3.95
2022-11-08T06:56:38.048Z,3.15
2022-11-08T06:59:05.436Z,3.45
2022-11-08T07:01:32.822Z,3.90
2022-11-08T07:04:00.205Z,3.05
2022-11-08T07:06:27.523Z,3.15
2022-11-08T07:08:57.826Z,3.40
2022-11-08T07:11:25.124Z,2.72
2022-11-08T07:13:53.783Z,3.30
2022-11-08T07:16:21.128Z,3.00
2022-11-08T07:18:50.575Z,2.72
2022-11-08T07:21:18.013Z,2.67
2022-11-08T07:23:45.332Z,3.17
2022-11-08T07:26:13.397Z,3.10
2022-11-08T07:28:41.096Z,2.58
2022-11-08T07:31:10.136Z,2.85
2022-11-08T07:33:37.475Z,3.67
2022-11-08T07:36:04.965Z,2.40
2022-11-08T07:38:32.291Z,2.53
2022-11-08T07:41:00.452Z,2.80
2022-11-08T07:43:28.285Z,2.97
2022-11-08T07:45:57.107Z,2.58
2022-11-08T07:48:26.539Z,2.67
2022-11-08T07:50:54.168Z,2.67
2022-11-08T07:53:21.799Z,2.72
2022-11-08T07:55:49.492Z,3.03
2022-11-08T07:58:16.941Z,2.45
2022-11-08T08:00:44.804Z,2.60
2022-11-08T08:03:13.252Z,2.30
2022-11-08T08:05:42.697Z,2.70
2022-11-08T08:08:10.543Z,3.05
2022-11-08T08:10:37.951Z,2.13
2022-11-08T08:13:06.059Z,2.10
2022-11-08T08:15:33.607Z,2.03
2022-11-08T08:18:01.936Z,2.40
2022-11-08T08:20:29.542Z,1.98
2022-11-08T08:22:58.287Z,2.55
2022-11-08T08:25:25.795Z,2.30
2022-11-08T08:27:54.072Z,2.30
2022-11-08T08:30:22.095Z,2.35
2022-11-08T08:33:02.093Z,2.20
2022-11-08T08:35:36.117Z,2.08
2022-11-08T08:38:05.668Z,2.47
2022-11-08T08:40:33.395Z,2.50
2022-11-08T08:43:00.952Z,2.20
2022-11-08T08:45:28.433Z,2.45
2022-11-08T08:47:56.775Z,2.20
2022-11-08T08:50:25.594Z,2.13
2022-11-08T08:52:52.947Z,2.55
2022-11-08T08:55:21.578Z,2.58
2022-11-08T08:57:49.365Z,3.30
2022-11-08T09:03:04.991Z,2.65
2022-11-08T09:05:32.414Z,2.83
2022-11-08T09:07:59.750Z,2.65
2022-11-08T09:10:28.992Z,3.22
2022-11-08T09:12:56.431Z,2.58
2022-11-08T09:15:23.873Z,2.95
2022-11-08T09:17:54.248Z,2.90
2022-11-08T09:20:21.556Z,2.72
2022-11-08T09:22:48.880Z,2.67
2022-11-08T09:25:16.241Z,2.35
2022-11-08T09:27:44.870Z,2.42
2022-11-08T09:30:12.239Z,1.98
2022-11-08T09:32:59.683Z,2.42
2022-11-08T09:35:26.891Z,2.38
2022-11-08T09:37:54.657Z,2.40
2022-11-08T09:40:23.936Z,2.20
2022-11-08T09:42:59.283Z,2.28
2022-11-08T09:45:28.987Z,2.33
2022-11-08T09:47:58.959Z,2.00
2022-11-08T09:50:32.521Z,1.90
2022-11-08T09:53:03.658Z,2.17
2022-11-08T09:55:33.253Z,1.90
2022-11-08T09:58:05.840Z,2.78
2022-11-08T10:00:35.231Z,2.38
2022-11-08T10:03:03.050Z,1.92
2022-11-08T10:05:34.773Z,2.22
2022-11-08T10:08:04.772Z,2.00
2022-11-08T10:10:38.655Z,2.40
2022-11-08T10:13:12.536Z,2.53
2022-11-08T10:15:44.128Z,2.20
2022-11-08T10:18:28.360Z,2.10
2022-11-08T10:20:59.925Z,2.15
2022-11-08T10:23:30.570Z,2.00
2022-11-08T10:26:00.087Z,2.08
2022-11-08T10:28:31.647Z,2.00
2022-11-08T10:30:59.761Z,2.33
2022-11-08T10:33:29.969Z,2.72
2022-11-08T10:36:02.144Z,1.92
2022-11-08T10:38:33.532Z,2.53
2022-11-08T10:41:05.574Z,2.40
2022-11-08T10:43:36.056Z,2.47
2022-11-08T10:46:03.351Z,2.40
2022-11-08T10:48:34.431Z,2.50
2022-11-08T10:51:01.749Z,2.20
2022-11-08T10:53:30.516Z,2.50
2022-11-08T10:56:00.326Z,2.22
2022-11-08T10:58:32.340Z,2.35
2022-11-08T11:01:02.095Z,2.60
2022-11-08T11:03:30.350Z,2.05
2022-11-08T11:05:59.946Z,2.60
2022-11-08T11:08:27.812Z,2.88
2022-11-08T11:10:55.472Z,2.38
2022-11-08T11:13:24.539Z,2.53
2022-11-08T11:15:53.140Z,2.50
2022-11-08T11:18:25.240Z,2.50
2022-11-08T11:21:02.825Z,2.80
2022-11-08T11:23:33.939Z,2.17
2022-11-08T11:26:01.377Z,2.95
2022-11-08T11:28:28.699Z,2.20
2022-11-08T11:31:00.745Z,2.88
2022-11-08T11:33:30.624Z,2.40
2022-11-08T11:35:59.087Z,2.85
2022-11-08T11:38:31.865Z,2.50
2022-11-08T11:41:04.629Z,2.15
2022-11-08T11:43:36.777Z,2.65
2022-11-08T11:46:09.056Z,2.35
2022-11-08T11:48:40.616Z,2.10
2022-11-08T11:51:09.807Z,2.50
2022-11-08T11:53:39.312Z,2.90
2022-11-08T11:56:26.989Z,2.22
2022-11-08T11:59:14.204Z,2.08
2022-11-08T12:02:00.689Z,2.80
2022-11-08T12:04:42.978Z,2.72
2022-11-08T12:07:16.218Z,2.30
2022-11-08T12:09:54.491Z,1.92
2022-11-08T12:12:26.148Z,2.40
2022-11-08T12:15:01.287Z,2.13
2022-11-08T12:17:34.595Z,2.40
2022-11-08T12:20:08.290Z,1.80
2022-11-08T12:22:46.412Z,1.60
2022-11-08T12:25:17.952Z,1.63
2022-11-08T12:27:49.339Z,1.90
2022-11-08T12:30:19.055Z,1.85
2022-11-08T12:32:53.510Z,1.58
2022-11-08T12:35:27.276Z,1.85
2022-11-08T12:38:01.968Z,1.65
2022-11-08T12:40:33.750Z,1.63
2022-11-08T12:43:05.851Z,1.70
2022-11-08T12:45:45.638Z,1.50
2022-11-08T12:48:17.343Z,1.60
2022-11-08T12:50:48.604Z,1.75
2022-11-08T12:53:32.552Z,1.75
2022-11-08T12:55:59.912Z,1.60
2022-11-08T12:58:34.183Z,2.00
2022-11-08T13:01:04.344Z,2.00
2022-11-08T13:03:46.625Z,1.63
2022-11-08T13:06:18.027Z,1.50
2022-11-08T13:08:51.812Z,1.77
2022-11-08T13:11:22.443Z,1.80
2022-11-08T13:13:51.196Z,1.55
2022-11-08T13:16:20.370Z,1.80
2022-11-08T13:18:49.113Z,1.83
2022-11-08T13:21:31.377Z,2.30
2022-11-08T13:24:42.241Z,1.98
2022-11-08T13:27:19.523Z,1.92
2022-11-08T13:29:48.219Z,1.60
2022-11-08T13:32:21.943Z,1.48
2022-11-08T13:34:51.436Z,1.70
2022-11-08T13:37:29.598Z,1.67
2022-11-08T13:40:05.290Z,1.75
2022-11-08T13:42:40.516Z,1.70
2022-11-08T13:45:14.282Z,1.40
2022-11-08T13:47:55.614Z,2.00
2022-11-08T13:50:41.554Z,2.08
2022-11-08T13:53:09.722Z,1.85
2022-11-08T13:55:46.881Z,2.65
2022-11-08T13:58:33.705Z,1.90
2022-11-08T14:01:02.789Z,1.27
2022-11-08T14:03:48.999Z,1.85
2022-11-08T14:06:18.737Z,1.60
2022-11-08T14:08:51.047Z,1.70
2022-11-08T14:11:36.087Z,1.73
2022-11-08T14:14:09.165Z,2.00
2022-11-08T14:16:42.763Z,2.00
2022-11-08T14:19:17.904Z,2.15
2022-11-08T14:21:49.731Z,1.85
2022-11-08T14:24:18.820Z,1.88
2022-11-08T14:26:47.930Z,1.83
2022-11-08T14:29:19.219Z,2.40
2022-11-08T14:31:48.143Z,2.10
2022-11-08T14:34:28.385Z,2.72
2022-11-08T14:36:56.335Z,1.67
2022-11-08T14:39:26.144Z,2.95
2022-11-08T14:41:54.940Z,2.15
2022-11-08T14:44:22.600Z,1.65
2022-11-08T14:46:51.264Z,2.00
2022-11-08T14:49:20.388Z,1.13
2022-11-08T14:51:48.515Z,2.45
2022-11-08T14:54:17.130Z,1.98
2022-11-08T14:56:45.069Z,1.70
2022-11-08T14:59:13.505Z,2.05
2022-11-08T15:01:41.470Z,1.80
2022-11-08T15:04:14.993Z,2.05
2022-11-08T15:06:43.379Z,1.80
2022-11-08T15:09:18.405Z,1.70
2022-11-08T15:11:52.743Z,2.20
2022-11-08T15:14:21.054Z,1.63
2022-11-08T15:16:49.724Z,1.20
2022-11-08T15:19:29.373Z,1.90
2022-11-08T15:21:57.511Z,1.60
2022-11-08T15:24:28.240Z,1.88
2022-11-08T15:27:05.627Z,1.80
2022-11-08T15:29:47.861Z,1.67
2022-11-08T15:32:17.372Z,1.83
2022-11-08T15:34:46.618Z,2.00
2022-11-08T15:37:21.073Z,2.10
2022-11-08T15:39:48.391Z,1.70
2022-11-08T15:42:16.381Z,1.70
2022-11-08T15:44:59.887Z,2.22
2022-11-08T15:47:38.203Z,1.70
2022-11-08T15:50:13.714Z,1.65
2022-11-08T15:52:41.034Z,1.80
2022-11-08T15:55:08.821Z,1.85
2022-11-08T15:57:39.364Z,1.80
2022-11-08T16:00:07.303Z,1.85
2022-11-08T16:02:34.642Z,1.70
2022-11-08T16:05:02.028Z,1.70
2022-11-08T16:07:30.687Z,2.00
2022-11-08T16:09:58.040Z,2.30
2022-11-08T16:12:25.316Z,1.80
2022-11-08T16:14:57.644Z,2.08
2022-11-08T16:17:24.965Z,2.38
2022-11-08T16:19:52.303Z,2.35
2022-11-08T16:22:19.611Z,2.00
2022-11-08T16:24:48.270Z,1.88
2022-11-08T16:27:15.568Z,1.90
2022-11-08T16:29:42.903Z,2.28
2022-11-08T16:32:10.689Z,2.00
2022-11-08T16:34:37.954Z,2.15
2022-11-08T16:37:05.247Z,1.63
2022-11-08T16:39:32.572Z,1.58
2022-11-08T16:42:01.195Z,1.90
2022-11-08T16:44:28.548Z,1.52
2022-11-08T16:46:55.975Z,1.73
2022-11-08T16:49:24.916Z,1.80
2022-11-08T16:51:52.240Z,1.67
2022-11-08T16:54:20.941Z,1.88
2022-11-08T16:56:48.248Z,1.60
2022-11-08T16:59:16.897Z,1.95
2022-11-08T17:01:44.949Z,1.63
2022-11-08T17:04:12.373Z,2.13
2022-11-08T17:06:39.794Z,1.92
2022-11-08T17:09:07.327Z,1.67
2022-11-08T17:11:34.897Z,1.67
2022-11-08T17:14:02.236Z,1.95
2022-11-08T17:16:30.989Z,1.70
2022-11-08T17:18:58.577Z,2.28
2022-11-08T17:24:19.869Z,2.38
2022-11-08T17:26:48.916Z,1.90
2022-11-08T17:29:16.234Z,2.45
2022-11-08T17:31:44.901Z,1.70
2022-11-08T17:34:12.273Z,2.00
2022-11-08T17:36:39.581Z,2.00
2022-11-08T17:39:07.460Z,2.17
2022-11-08T17:41:34.844Z,2.60
2022-11-08T17:44:02.200Z,1.80
2022-11-08T17:46:29.524Z,1.83
2022-11-08T17:48:58.214Z,2.20
2022-11-08T17:51:25.564Z,1.80
2022-11-08T17:53:52.871Z,1.67
2022-11-08T17:56:20.217Z,2.00
2022-11-08T17:58:47.521Z,2.00
2022-11-08T18:01:15.937Z,1.95
2022-11-08T18:03:43.357Z,2.00
2022-11-08T18:06:13.999Z,1.73
2022-11-08T18:08:41.827Z,1.92
2022-11-08T18:11:09.407Z,2.03
2022-11-08T18:13:36.797Z,2.20
2022-11-08T18:16:07.893Z,2.05
2022-11-08T18:18:35.499Z,1.95
2022-11-08T18:21:04.294Z,2.10
2022-11-08T18:23:33.489Z,2.25
2022-11-08T18:26:01.299Z,1.90
2022-11-08T18:28:29.222Z,2.17
2022-11-08T18:30:56.566Z,1.90
2022-11-08T18:33:23.950Z,1.77
2022-11-08T18:35:51.318Z,1.50
2022-11-08T18:38:18.627Z,2.10
2022-11-08T18:40:49.564Z,2.03
2022-11-08T18:43:17.112Z,2.05
2022-11-08T18:45:44.559Z,1.60
2022-11-08T18:48:11.913Z,2.10
2022-11-08T18:50:39.283Z,2.50
2022-11-08T18:53:06.982Z,2.33
2022-11-08T18:55:34.391Z,2.60
2022-11-08T18:58:03.363Z,2.25
2022-11-08T19:00:30.933Z,1.85
2022-11-08T19:02:58.322Z,1.85
2022-11-08T19:05:25.628Z,1.80
2022-11-08T19:07:52.977Z,1.95
2022-11-08T19:10:20.273Z,1.90
2022-11-08T19:12:47.552Z,1.98
2022-11-08T19:15:16.300Z,1.98
2022-11-08T19:17:47.226Z,2.15
2022-11-08T19:20:17.282Z,1.92
2022-11-08T19:22:44.595Z,1.83
2022-11-08T19:25:11.886Z,2.22
2022-11-08T19:27:39.300Z,1.98
2022-11-08T19:30:07.172Z,2.15
2022-11-08T19:32:35.908Z,1.70
2022-11-08T19:35:03.302Z,1.90
2022-11-08T19:37:31.111Z,2.15
2022-11-08T19:39:58.400Z,2.25
2022-11-08T19:42:25.742Z,1.80
2022-11-08T19:44:53.072Z,1.77
2022-11-08T19:47:20.467Z,1.80
2022-11-08T19:49:49.143Z,2.17
2022-11-08T19:52:16.562Z,1.80
2022-11-08T19:54:43.900Z,1.77
2022-11-08T19:57:11.279Z,2.03
2022-11-08T19:59:38.589Z,2.00
2022-11-08T20:02:05.978Z,1.52
2022-11-08T20:04:33.417Z,2.10
2022-11-08T20:07:02.164Z,2.00
2022-11-08T20:09:31.101Z,2.10
2022-11-08T20:12:00.047Z,2.42
2022-11-08T20:14:27.361Z,2.10
2022-11-08T20:16:55.522Z,2.00
2022-11-08T20:19:22.873Z,2.35
2022-11-08T20:21:50.586Z,1.95
2022-11-08T20:24:19.544Z,1.85
2022-11-08T20:26:46.860Z,2.33
2022-11-08T20:29:14.612Z,2.13
2022-11-08T20:31:42.448Z,2.60
2022-11-08T20:34:11.742Z,2.00
2022-11-08T20:36:40.804Z,1.80
2022-11-08T20:39:08.394Z,2.28
2022-11-08T20:41:38.598Z,2.17
2022-11-08T20:44:06.324Z,1.90
2022-11-08T20:46:34.072Z,2.03
2022-11-08T20:49:01.937Z,2.13
2022-11-08T20:51:30.321Z,2.20
2022-11-08T20:53:58.101Z,2.00
2022-11-08T20:56:25.640Z,2.47
2022-11-08T20:58:54.629Z,2.10
2022-11-08T21:01:23.251Z,2.38
2022-11-08T21:03:51.652Z,2.00
2022-11-08T21:06:19.991Z,2.15
2022-11-08T21:09:12.117Z,2.10
2022-11-08T21:11:35.331Z,2.30
2022-11-08T21:14:04.514Z,2.20
2022-11-08T21:16:42.708Z,1.88
2022-11-08T21:19:19.296Z,1.70
2022-11-08T21:21:48.062Z,1.85
2022-11-08T21:24:15.413Z,1.77
2022-11-08T21:26:42.767Z,1.98
2022-11-08T21:29:11.474Z,1.63
2022-11-08T21:31:38.800Z,1.65
2022-11-08T21:34:06.108Z,1.50
2022-11-08T21:36:33.860Z,1.52
2022-11-08T21:39:01.277Z,1.70
2022-11-08T21:41:28.651Z,1.83
2022-11-08T21:43:55.971Z,1.90
2022-11-08T21:46:25.660Z,1.50
2022-11-08T21:48:54.124Z,2.10
2022-11-08T21:51:21.748Z,1.45
2022-11-08T21:53:54.892Z,1.38
2022-11-08T21:56:23.206Z,1.95
2022-11-08T21:58:50.576Z,2.00
2022-11-08T22:01:18.303Z,1.48
2022-11-08T22:03:47.109Z,1.80
2022-11-08T22:06:14.775Z,1.23
2022-11-08T22:08:42.084Z,1.80
2022-11-08T22:11:09.449Z,1.40
2022-11-08T22:13:36.740Z,2.10
2022-11-08T22:16:04.183Z,1.77
2022-11-08T22:18:50.695Z,1.75
2022-11-08T22:21:37.714Z,1.70
2022-11-08T22:24:05.131Z,1.38
2022-11-08T22:26:32.449Z,1.40
2022-11-08T22:28:59.833Z,1.80
2022-11-08T22:31:27.193Z,1.73
2022-11-08T22:33:54.567Z,1.85
2022-11-08T22:36:23.227Z,2.00
2022-11-08T22:38:50.564Z,1.42
2022-11-08T22:41:18.412Z,1.90
2022-11-08T22:43:46.148Z,1.48
2022-11-08T22:46:13.758Z,1.40
2022-11-08T22:48:41.391Z,2.00
2022-11-08T22:51:08.974Z,1.60
2022-11-08T22:53:37.801Z,1.63
2022-11-08T22:56:10.717Z,2.30
2022-11-08T22:58:38.825Z,1.95
2022-11-08T23:01:06.539Z,2.20
2022-11-08T23:03:33.899Z,1.48
2022-11-08T23:06:01.313Z,2.00
2022-11-08T23:08:28.950Z,1.55
2022-11-08T23:11:16.879Z,1.92
2022-11-08T23:14:01.989Z,2.05
2022-11-08T23:16:38.248Z,1.98
2022-11-08T23:19:24.092Z,2.15
2022-11-08T23:22:08.867Z,1.98
2022-11-08T23:24:36.180Z,1.95
2022-11-08T23:27:22.549Z,2.00
2022-11-08T23:30:07.584Z,1.83
2022-11-08T23:32:35.339Z,2.35
2022-11-08T23:35:02.859Z,2.38
2022-11-08T23:37:30.444Z,2.13
2022-11-08T23:40:15.240Z,1.80
2022-11-08T23:43:01.386Z,1.88
2022-11-08T23:45:28.696Z,2.05
2022-11-08T23:47:55.993Z,1.60
2022-11-08T23:50:23.299Z,1.95
2022-11-08T23:52:50.663Z,1.60
2022-11-08T23:55:18.227Z,2.05
2022-11-08T23:57:48.088Z,1.73
